This is the latest recevied weather packets stored in our database for station/object DL8TF-13. If no packets are shown the sender has not sent any weather packets the latest 10 day(s).
| Time | Temp. | Humidity | Pressure | Rain* | Wind** | Luminosity | Snow |
|---|---|---|---|---|---|---|---|
| 1777500196 | 13.89° C | 26% | 992 hPa | - | - | - | - |
| 1777499596 | 13.89° C | 27% | 992 hPa | - | - | - | - |
| 1777497796 | 14.44° C | 26% | 992 hPa | - | - | - | - |
| 1777496596 | 14.44° C | 27% | 991 hPa | - | - | - | - |
| 1777495996 | 14.44° C | 27% | 991 hPa | - | - | - | - |
| 1777494196 | 13.33° C | 35% | 991 hPa | - | - | - | - |
| 1777493596 | 13.89° C | 34% | 991 hPa | - | - | - | - |
| 1777491195 | 15.56° C | 28% | 991 hPa | - | - | - | - |
| 1777490595 | 15.56° C | 27% | 991 hPa | - | - | - | - |
| 1777489995 | 16.67° C | 26% | 991 hPa | - | - | - | - |
| 1777487595 | 17.78° C | 20% | 990 hPa | - | - | - | - |
| 1777486995 | 18.33° C | 19% | 990 hPa | - | - | - | - |
| 1777486395 | 18.89° C | 20% | 990 hPa | - | - | - | - |
| 1777485795 | 19.44° C | 18% | 990 hPa | - | - | - | - |
| 1777485195 | 20° C | 18% | 990 hPa | - | - | - | - |
| 1777483995 | 21.67° C | 17% | 989 hPa | - | - | - | - |
| 1777483395 | 21.11° C | 17% | 989 hPa | - | - | - | - |
| 1777480394 | 23.33° C | 15% | 989 hPa | - | - | - | - |
| 1777479794 | 23.33° C | 16% | 989 hPa | - | - | - | - |
| 1777477994 | 23.89° C | 15% | 989 hPa | - | - | - | - |
| 1777476794 | 24.44° C | 16% | 989 hPa | - | - | - | - |
| 1777476194 | 25° C | 15% | 989 hPa | - | - | - | - |
| 1777475594 | 25.56° C | 16% | 989 hPa | - | - | - | - |
| 1777474994 | 26.11° C | 16% | 989 hPa | - | - | - | - |
| 1777474394 | 26.67° C | 15% | 989 hPa | - | - | - | - |
* Rain since midnight (hover to see other rain measurements)
** Current wind speed in m/s (hover to see current wind gust speed)